Time;durP1;ratioP1;P1;durP2;ratioP2;P2;SDS_P1;SDS_P2;PMS_P1;PMS_P2;Temp;Humidity;BMP_temperature;BMP_pressure;BME280_temperature;BME280_humidity;BME280_pressure;Samples;Min_cycle;Max_cycle;Signal;HPM_P1;HPM_P2
2021/01/27 00:00:26;;;;;;;6.07;3.53;;;;;;;1.12;74.71;97479.44;4911249;29;20137;-79
2021/01/27 00:02:51;;;;;;;5.72;3.05;;;;;;;1.12;74.26;97474.31;4928596;29;20062;-79
2021/01/27 00:05:26;;;;;;;7.05;3.78;;;;;;;0.99;74.74;97481.00;4929402;29;20083;-79
2021/01/27 00:07:51;;;;;;;6.90;3.00;;;;;;;1.10;74.50;97471.13;4906940;29;20046;-79
2021/01/27 00:10:17;;;;;;;6.82;3.63;;;;;;;1.12;74.88;97473.50;4897462;29;20035;-79
2021/01/27 00:12:43;;;;;;;6.25;3.17;;;;;;;1.10;74.91;97475.47;4902176;29;20032;-79
2021/01/27 00:15:18;;;;;;;5.50;3.33;;;;;;;0.95;74.09;97464.41;4928519;29;20039;-79
2021/01/27 00:17:44;;;;;;;6.55;3.58;;;;;;;0.82;75.37;97459.88;4929812;29;20031;-78
2021/01/27 00:20:13;;;;;;;7.60;3.47;;;;;;;0.70;75.27;97444.94;4897569;29;20435;-79
2021/01/27 00:22:38;;;;;;;5.47;3.10;;;;;;;0.73;75.92;97443.78;4929426;29;20271;-79
2021/01/27 00:25:05;;;;;;;5.50;3.17;;;;;;;0.73;75.73;97446.34;4912784;29;20050;-78
2021/01/27 00:27:31;;;;;;;5.43;3.40;;;;;;;0.75;75.56;97421.31;4911087;29;20082;-79
2021/01/27 00:29:57;;;;;;;9.98;3.83;;;;;;;0.80;74.94;97436.97;4913846;29;20099;-79
2021/01/27 00:32:23;;;;;;;5.07;2.95;;;;;;;0.83;74.55;97439.19;4928829;29;20514;-79
2021/01/27 00:34:49;;;;;;;8.35;3.72;;;;;;;0.66;75.63;97428.28;4907992;29;20027;-79
2021/01/27 00:37:14;;;;;;;5.13;2.97;;;;;;;0.59;75.21;97434.31;4879087;29;20046;-79
2021/01/27 00:39:40;;;;;;;5.75;3.40;;;;;;;0.61;75.30;97440.03;4905269;29;20549;-79
2021/01/27 00:42:06;;;;;;;8.70;3.83;;;;;;;0.65;75.02;97431.03;4909812;29;20038;-78
2021/01/27 00:44:32;;;;;;;6.45;3.33;;;;;;;0.55;74.83;97434.66;4887466;29;20039;-79
2021/01/27 00:46:58;;;;;;;5.75;3.15;;;;;;;0.62;75.57;97444.19;4913289;29;20074;-78
2021/01/27 00:49:24;;;;;;;5.88;3.40;;;;;;;0.54;75.46;97435.59;4913834;29;20463;-79
2021/01/27 00:51:50;;;;;;;7.55;4.00;;;;;;;0.40;76.34;97421.00;4913079;29;20471;-78
2021/01/27 00:54:18;;;;;;;8.65;3.92;;;;;;;0.47;76.27;97436.47;4914027;29;20070;-78
2021/01/27 00:56:44;;;;;;;6.50;3.10;;;;;;;0.45;76.00;97428.97;4908483;29;20047;-78
2021/01/27 00:59:10;;;;;;;8.35;3.78;;;;;;;0.28;75.97;97412.16;4915105;29;20031;-78
2021/01/27 01:01:35;;;;;;;7.50;3.33;;;;;;;0.49;76.10;97422.53;4914984;29;20087;-79
2021/01/27 01:04:07;;;;;;;7.40;3.50;;;;;;;0.40;75.71;97413.31;4931548;29;20052;-78
2021/01/27 01:06:33;;;;;;;6.32;3.60;;;;;;;0.52;76.14;97411.94;4899422;29;20074;-78
2021/01/27 01:08:59;;;;;;;5.47;3.50;;;;;;;0.47;76.38;97409.09;4915744;29;20075;-78
2021/01/27 01:11:24;;;;;;;8.95;3.88;;;;;;;0.53;75.70;97412.72;4915298;29;20483;-78
2021/01/27 01:13:52;;;;;;;7.25;3.45;;;;;;;0.42;75.93;97411.38;4914487;29;20059;-78
2021/01/27 01:16:18;;;;;;;6.18;3.58;;;;;;;0.45;76.24;97411.03;4930637;29;20498;-78
2021/01/27 01:18:44;;;;;;;9.38;3.95;;;;;;;0.50;75.96;97407.97;4903528;29;20028;-78
2021/01/27 01:21:11;;;;;;;7.28;4.78;;;;;;;0.49;76.04;97396.91;4926377;29;20490;-78
2021/01/27 01:23:36;;;;;;;9.02;4.22;;;;;;;0.47;76.54;97400.63;4887457;29;20039;-78
2021/01/27 01:26:02;;;;;;;7.97;4.35;;;;;;;0.51;76.01;97410.31;4915353;29;20027;-78
2021/01/27 01:28:28;;;;;;;9.90;4.13;;;;;;;0.42;75.79;97390.88;4934038;29;20115;-78
2021/01/27 01:30:54;;;;;;;9.65;5.03;;;;;;;0.42;75.91;97385.75;4936263;29;20580;-78
2021/01/27 01:33:23;;;;;;;8.95;3.80;;;;;;;0.42;76.11;97408.81;4915161;29;20039;-78
2021/01/27 01:35:49;;;;;;;6.32;3.83;;;;;;;0.36;76.57;97401.81;4926491;29;20415;-79
2021/01/27 01:38:16;;;;;;;7.57;4.45;;;;;;;0.36;76.56;97401.81;4920615;29;20039;-78
2021/01/27 01:40:52;;;;;;;5.97;3.30;;;;;;;0.21;77.10;97399.25;4918540;29;20040;-78
2021/01/27 01:43:23;;;;;;;8.15;3.90;;;;;;;0.32;76.77;97400.59;4915337;29;20050;-78
2021/01/27 01:45:55;;;;;;;6.78;3.97;;;;;;;0.24;76.68;97405.75;4931056;29;20031;-78
2021/01/27 01:48:45;;;;;;;8.38;3.75;;;;;;;0.24;76.72;97405.75;4903662;29;20087;-79
2021/01/27 01:51:24;;;;;;;6.45;3.88;;;;;;;0.47;76.62;97403.19;4908922;29;20039;-78
2021/01/27 01:53:52;;;;;;;9.00;3.72;;;;;;;0.43;76.27;97395.06;4904129;29;20036;-78
2021/01/27 01:56:21;;;;;;;10.90;4.78;;;;;;;0.34;76.77;97389.22;4914327;29;20024;-78
2021/01/27 01:58:47;;;;;;;7.75;3.97;;;;;;;0.45;77.12;97390.53;4924722;29;20086;-78
2021/01/27 02:01:13;;;;;;;7.68;4.05;;;;;;;0.49;77.20;97394.34;4898646;29;20043;-79
2021/01/27 02:03:39;;;;;;;9.73;4.10;;;;;;;0.52;77.07;97399.13;4942153;24;20106;-81
2021/01/27 02:06:10;;;;;;;9.88;4.68;;;;;;;0.44;76.92;97386.38;4934706;29;20035;-81
2021/01/27 02:08:38;;;;;;;8.45;4.32;;;;;;;0.56;76.46;97374.72;4935297;29;20035;-81
2021/01/27 02:11:04;;;;;;;7.05;3.92;;;;;;;0.62;76.45;97377.56;4935840;29;20039;-81
2021/01/27 02:13:39;;;;;;;8.57;3.80;;;;;;;0.57;76.58;97378.09;4951360;29;20043;-81
2021/01/27 02:16:09;;;;;;;10.07;4.33;;;;;;;0.60;76.09;97369.25;4951451;29;20385;-81
2021/01/27 02:19:06;;;;;;;7.30;4.50;;;;;;;0.50;76.60;97378.00;4933312;29;20434;-81
2021/01/27 02:21:44;;;;;;;6.88;3.55;;;;;;;0.76;76.25;97371.66;4943939;29;20508;-81
2021/01/27 02:24:36;;;;;;;8.25;4.22;;;;;;;0.58;76.58;97364.31;4935007;29;20038;-81
2021/01/27 02:27:06;;;;;;;8.52;4.88;;;;;;;0.81;76.47;97360.91;4928474;29;20059;-81
2021/01/27 02:29:40;;;;;;;8.43;3.78;;;;;;;0.65;76.22;97362.66;4935235;29;20118;-81
2021/01/27 02:32:25;;;;;;;;;;;;;;;0.48;77.01;97368.91;4953609;29;20039;-81
2021/01/27 02:35:14;;;;;;;5.95;3.58;;;;;;;0.58;76.61;97356.63;4933973;29;19910;-81
2021/01/27 02:37:57;;;;;;;8.98;3.88;;;;;;;0.67;76.57;97353.03;4919630;29;20101;-81
2021/01/27 02:40:28;;;;;;;11.73;4.78;;;;;;;0.73;76.56;97349.75;4928995;29;20506;-81
2021/01/27 02:43:01;;;;;;;7.90;4.18;;;;;;;0.73;76.47;97351.50;4918905;29;20027;-81
2021/01/27 02:45:31;;;;;;;8.65;4.82;;;;;;;0.81;76.98;97348.09;4952769;29;20058;-81
2021/01/27 02:48:02;;;;;;;9.25;4.55;;;;;;;0.84;76.68;97338.25;4934053;29;20142;-81
2021/01/27 02:50:35;;;;;;;8.10;4.22;;;;;;;0.81;76.00;97338.63;4944049;29;20526;-79
2021/01/27 02:53:16;;;;;;;10.80;4.55;;;;;;;0.72;76.59;97329.41;4943433;29;20039;-79
2021/01/27 02:55:58;;;;;;;8.18;4.60;;;;;;;0.75;76.34;97321.38;4916716;29;20031;-78
2021/01/27 02:58:34;;;;;;;11.18;4.60;;;;;;;0.81;76.80;97328.38;4938631;28;20037;-80
2021/01/27 03:01:06;;;;;;;8.23;4.40;;;;;;;1.02;75.85;97335.31;4935417;29;20028;-81
2021/01/27 03:03:40;;;;;;;8.85;4.75;;;;;;;1.03;75.99;97330.97;4903681;29;20047;-81
2021/01/27 03:06:10;;;;;;;9.90;4.85;;;;;;;1.15;75.39;97319.31;4915943;29;20129;-81
2021/01/27 03:08:49;;;;;;;11.23;4.28;;;;;;;1.11;75.38;97313.75;4931454;29;20142;-81
2021/01/27 03:11:20;;;;;;;10.07;4.93;;;;;;;1.07;75.38;97311.72;4915524;29;20028;-81
2021/01/27 03:13:47;;;;;;;8.90;4.15;;;;;;;1.05;75.53;97304.19;4931472;29;20032;-81
2021/01/27 03:16:15;;;;;;;8.38;4.32;;;;;;;1.17;75.40;97308.88;4932179;29;20118;-81
2021/01/27 03:18:44;;;;;;;7.90;4.35;;;;;;;1.22;75.35;97307.34;4937881;29;20031;-81
2021/01/27 03:21:13;;;;;;;10.18;4.50;;;;;;;1.03;75.82;97308.72;4916003;29;20122;-81
2021/01/27 03:23:42;;;;;;;7.13;3.58;;;;;;;1.11;75.61;97311.19;4915862;29;20027;-81
2021/01/27 03:26:25;;;;;;;9.90;4.40;;;;;;;1.09;75.32;97299.50;4915235;29;20036;-81
2021/01/27 03:29:28;;;;;;;7.95;4.22;;;;;;;1.03;75.46;97306.16;4922086;29;20051;-81
2021/01/27 03:31:57;;;;;;;10.15;4.15;;;;;;;1.11;75.62;97300.91;4892131;29;20033;-81
2021/01/27 03:34:29;;;;;;;8.40;3.88;;;;;;;1.17;74.95;97301.97;4875881;29;20065;-81
2021/01/27 03:37:04;;;;;;;11.85;6.15;;;;;;;1.21;74.97;97294.69;4876648;29;20495;-81
2021/01/27 03:39:34;;;;;;;9.95;4.10;;;;;;;1.26;75.27;97295.72;4892837;29;20499;-81
2021/01/27 03:42:06;;;;;;;10.85;4.07;;;;;;;1.23;74.80;97290.16;4864764;29;20340;-81
2021/01/27 03:44:35;;;;;;;8.57;4.35;;;;;;;1.28;75.65;97286.06;4892101;29;20048;-81
2021/01/27 03:47:08;;;;;;;10.57;4.13;;;;;;;1.45;75.07;97283.28;4876728;29;20429;-81
2021/01/27 03:49:37;;;;;;;8.38;4.72;;;;;;;1.23;75.83;97278.13;4893288;29;20279;-81
2021/01/27 03:52:19;;;;;;;7.97;3.67;;;;;;;1.13;76.17;97280.19;4886562;29;20036;-81
2021/01/27 03:54:48;;;;;;;11.13;4.30;;;;;;;1.25;76.31;97272.81;4876162;29;20515;-81
2021/01/27 03:57:24;;;;;;;10.02;4.50;;;;;;;1.26;75.85;97266.72;4856632;29;20136;-81
2021/01/27 03:59:49;;;;;;;8.57;4.60;;;;;;;1.27;76.62;97261.41;4873104;29;20049;-78
2021/01/27 04:02:18;;;;;;;11.52;4.75;;;;;;;1.19;76.76;97263.31;4876656;29;20135;-78
2021/01/27 04:04:44;;;;;;;10.73;4.78;;;;;;;1.31;76.81;97247.25;4893887;29;20037;-78
2021/01/27 04:07:10;;;;;;;9.52;4.90;;;;;;;1.35;76.92;97259.72;4932785;29;20106;-78
2021/01/27 04:09:36;;;;;;;10.73;5.00;;;;;;;1.40;77.15;97254.81;4919204;29;20489;-79
2021/01/27 04:12:02;;;;;;;11.50;5.78;;;;;;;1.49;77.12;97258.84;4932924;29;20036;-78
2021/01/27 04:14:28;;;;;;;9.32;4.50;;;;;;;1.30;77.57;97258.50;4930948;29;20523;-78
2021/01/27 04:16:54;;;;;;;8.55;5.57;;;;;;;1.42;77.25;97252.84;4915148;29;20357;-78
2021/01/27 04:19:20;;;;;;;12.43;5.68;;;;;;;1.39;77.76;97242.97;4931541;29;20123;-78
2021/01/27 04:21:46;;;;;;;11.63;5.78;;;;;;;1.27;77.91;97225.50;4934476;29;20502;-80
2021/01/27 04:24:12;;;;;;;12.70;6.50;;;;;;;1.41;77.65;97228.19;4940128;29;20415;-81
2021/01/27 04:26:38;;;;;;;15.55;5.40;;;;;;;1.33;78.13;97238.59;4914060;29;20062;-81
2021/01/27 04:29:04;;;;;;;11.35;5.50;;;;;;;1.34;77.87;97228.13;4883973;29;20087;-81
2021/01/27 04:31:30;;;;;;;11.68;5.82;;;;;;;1.37;78.13;97209.00;4914863;29;20032;-81
2021/01/27 04:33:56;;;;;;;12.40;5.75;;;;;;;1.31;78.10;97206.19;4914855;29;20111;-78
2021/01/27 04:36:24;;;;;;;14.90;6.63;;;;;;;1.35;77.72;97203.28;4912788;29;20126;-78
2021/01/27 04:38:53;;;;;;;9.80;5.30;;;;;;;1.45;77.82;97190.94;4930446;29;20518;-78
2021/01/27 04:41:19;;;;;;;13.07;4.97;;;;;;;1.47;77.70;97192.34;4899082;29;20071;-78
2021/01/27 04:43:47;;;;;;;9.57;5.13;;;;;;;1.31;78.19;97195.16;4913933;29;20028;-79
2021/01/27 04:46:22;;;;;;;13.25;5.97;;;;;;;1.29;77.69;97202.25;4914737;29;20031;-79
2021/01/27 04:49:06;;;;;;;13.02;4.65;;;;;;;1.27;77.81;97212.69;4937243;29;20071;-78
2021/01/27 04:51:41;;;;;;;12.02;5.60;;;;;;;1.21;78.34;97203.16;4933290;29;20034;-78
2021/01/27 04:54:28;;;;;;;11.23;5.88;;;;;;;1.25;77.85;97199.25;4930776;29;20051;-78
2021/01/27 04:57:08;;;;;;;10.40;5.32;;;;;;;1.28;77.52;97187.81;4938098;29;20074;-78
2021/01/27 05:00:11;;;;;;;9.60;4.63;;;;;;;1.23;78.06;97179.88;4938151;29;20039;-78
2021/01/27 05:03:09;;;;;;;10.88;4.68;;;;;;;1.10;78.34;97183.16;4930899;29;20063;-78
2021/01/27 05:05:38;;;;;;;11.10;4.55;;;;;;;1.28;78.00;97180.91;4908632;29;20411;-78
2021/01/27 05:08:16;;;;;;;11.35;4.90;;;;;;;1.30;77.94;97168.72;4931000;29;20051;-78
2021/01/27 05:10:41;;;;;;;11.35;5.40;;;;;;;1.42;77.62;97179.28;4904906;29;20070;-78
2021/01/27 05:13:18;;;;;;;13.73;5.10;;;;;;;1.19;78.25;97183.81;4931832;29;20491;-78
2021/01/27 05:15:44;;;;;;;11.93;5.50;;;;;;;1.38;78.14;97159.31;4918365;29;20036;-78
2021/01/27 05:18:12;;;;;;;9.88;5.32;;;;;;;1.35;77.81;97155.31;4867878;29;20544;-78
2021/01/27 05:20:38;;;;;;;9.75;4.60;;;;;;;1.56;77.62;97151.13;4913845;29;20035;-78
2021/01/27 05:23:04;;;;;;;7.55;4.72;;;;;;;1.44;77.53;97136.25;4931267;29;20044;-79
2021/01/27 05:25:41;;;;;;;10.13;5.28;;;;;;;1.39;77.51;97151.41;4900214;29;20036;-78
2021/01/27 05:28:13;;;;;;;9.70;5.15;;;;;;;1.38;77.53;97139.56;4917132;29;20087;-78
2021/01/27 05:30:51;;;;;;;12.10;5.10;;;;;;;1.25;78.14;97130.00;4914188;29;20028;-79
2021/01/27 05:33:18;;;;;;;9.40;4.63;;;;;;;1.45;77.51;97121.66;4901015;29;20036;-78
2021/01/27 05:35:44;;;;;;;10.57;4.90;;;;;;;1.45;77.77;97124.22;4933854;29;20079;-78
2021/01/27 05:38:31;;;;;;;11.73;4.28;;;;;;;1.34;77.47;97122.16;4937975;29;20047;-78
2021/01/27 05:41:06;;;;;;;10.52;4.70;;;;;;;1.38;77.93;97120.81;4933799;29;20036;-78
2021/01/27 05:43:32;;;;;;;11.23;4.65;;;;;;;1.56;76.93;97110.88;4917419;29;20491;-79
2021/01/27 05:46:28;;;;;;;11.43;5.10;;;;;;;1.39;77.33;97115.50;4933178;29;20054;-78
2021/01/27 05:48:55;;;;;;;10.65;4.57;;;;;;;1.57;77.14;97115.03;4918075;29;20151;-78
2021/01/27 05:51:29;;;;;;;9.70;4.50;;;;;;;1.43;77.30;97121.06;4901828;29;20042;-80
2021/01/27 05:53:55;;;;;;;10.48;4.35;;;;;;;1.69;76.84;97112.72;4911826;29;20036;-78
2021/01/27 05:56:22;;;;;;;10.15;5.18;;;;;;;1.41;78.10;97097.38;4933485;29;20027;-79
2021/01/27 05:58:56;;;;;;;9.18;4.60;;;;;;;1.25;77.89;97096.66;4939551;29;20047;-78
2021/01/27 06:01:42;;;;;;;9.60;4.43;;;;;;;1.33;77.76;97100.06;4930539;29;20423;-79
2021/01/27 06:04:10;;;;;;;9.88;4.80;;;;;;;1.46;77.80;97095.03;4919823;29;20098;-78
2021/01/27 06:06:39;;;;;;;11.57;4.93;;;;;;;1.44;77.46;97089.28;4919038;29;20046;-78
2021/01/27 06:09:06;;;;;;;8.38;4.95;;;;;;;1.46;78.15;97090.69;4916241;29;20383;-78
2021/01/27 06:11:33;;;;;;;10.60;4.82;;;;;;;1.64;76.95;97087.63;4916775;29;20027;-78
2021/01/27 06:14:18;;;;;;;9.05;4.28;;;;;;;1.17;78.48;97083.19;4922363;29;20039;-78
2021/01/27 06:16:46;;;;;;;7.20;4.35;;;;;;;1.32;78.66;97073.63;4921948;29;20117;-78
2021/01/27 06:19:24;;;;;;;7.57;3.83;;;;;;;1.20;78.40;97073.34;4932390;29;20036;-78
2021/01/27 06:21:56;;;;;;;6.60;3.40;;;;;;;1.25;78.57;97068.47;4935743;29;20046;-78
2021/01/27 06:24:43;;;;;;;8.43;4.20;;;;;;;1.45;77.57;97062.66;4932767;29;20035;-80
2021/01/27 06:27:21;;;;;;;9.25;3.90;;;;;;;1.33;77.92;97049.56;4933095;29;20039;-81
2021/01/27 06:30:12;;;;;;;7.43;3.55;;;;;;;1.28;78.18;97042.41;4931787;29;20108;-78
2021/01/27 06:32:57;;;;;;;5.85;3.20;;;;;;;1.18;78.15;97039.38;4915982;29;20071;-78
2021/01/27 06:35:56;;;;;;;6.35;3.50;;;;;;;1.27;77.99;97051.09;4925010;29;20411;-78
2021/01/27 06:38:58;;;;;;;6.35;3.60;;;;;;;1.18;78.23;97054.00;4916675;29;20031;-78
2021/01/27 06:42:01;;;;;;;7.35;4.05;;;;;;;1.20;78.40;97052.84;4915374;29;20055;-78
2021/01/27 06:44:41;;;;;;;7.32;3.15;;;;;;;1.23;78.10;97052.44;4933480;29;20100;-78
2021/01/27 06:47:26;;;;;;;8.60;4.05;;;;;;;1.38;78.10;97056.69;4922506;29;20082;-78
2021/01/27 06:50:11;;;;;;;5.60;3.28;;;;;;;1.25;78.01;97067.66;4928676;29;20114;-79
2021/01/27 06:52:53;;;;;;;7.43;4.35;;;;;;;1.20;78.26;97069.97;4939020;29;20057;-78
2021/01/27 06:55:30;;;;;;;5.90;2.92;;;;;;;1.30;78.05;97071.25;4932445;29;20121;-78
2021/01/27 06:58:17;;;;;;;6.20;3.45;;;;;;;1.12;78.65;97079.41;4916810;29;20061;-78
2021/01/27 07:01:14;;;;;;;6.95;3.33;;;;;;;1.32;77.85;97073.63;4918473;29;20062;-79
2021/01/27 07:03:40;;;;;;;5.57;2.80;;;;;;;1.51;78.13;97072.16;4931542;29;20276;-78
2021/01/27 07:06:23;;;;;;;4.57;2.80;;;;;;;1.21;78.20;97062.09;4939229;29;20098;-78
2021/01/27 07:09:25;;;;;;;7.10;2.70;;;;;;;1.21;78.33;97062.09;4934520;29;20569;-78
2021/01/27 07:12:06;;;;;;;9.07;3.33;;;;;;;1.28;78.43;97059.59;4933411;29;20028;-78
2021/01/27 07:15:09;;;;;;;3.85;2.35;;;;;;;1.14;78.87;97056.13;4934327;29;20067;-78
2021/01/27 07:17:56;;;;;;;6.47;2.45;;;;;;;1.15;78.89;97062.06;4933350;29;20035;-78
2021/01/27 07:20:26;;;;;;;5.03;2.00;;;;;;;1.31;78.65;97052.31;4933426;29;20534;-78
2021/01/27 07:22:59;;;;;;;3.42;1.60;;;;;;;1.31;77.79;97047.16;4937663;29;20024;-78
2021/01/27 07:25:28;;;;;;;3.08;2.00;;;;;;;1.39;78.47;97046.25;4933537;29;20126;-78
2021/01/27 07:28:01;;;;;;;3.88;1.90;;;;;;;1.36;78.06;97031.22;4936579;29;20049;-78
2021/01/27 07:30:48;;;;;;;2.85;2.00;;;;;;;1.31;77.84;97042.03;4933800;29;20030;-78
2021/01/27 07:33:19;;;;;;;3.15;1.52;;;;;;;1.37;77.89;97044.84;4937945;29;20111;-78
2021/01/27 07:36:00;;;;;;;3.42;1.77;;;;;;;1.31;78.53;97048.94;4916103;29;20040;-78
2021/01/27 07:38:30;;;;;;;4.82;1.73;;;;;;;1.45;78.08;97063.44;4935519;29;20035;-78
2021/01/27 07:41:03;;;;;;;4.38;1.60;;;;;;;1.46;78.08;97067.59;4937957;29;20035;-78
2021/01/27 07:44:00;;;;;;;3.20;1.55;;;;;;;1.25;78.23;97075.34;4903433;29;20514;-78
2021/01/27 07:46:49;;;;;;;2.88;1.50;;;;;;;1.24;78.42;97061.72;4929224;29;20554;-78
2021/01/27 07:49:21;;;;;;;2.67;1.40;;;;;;;1.15;79.57;97062.06;4914932;29;20039;-77
2021/01/27 07:51:55;;;;;;;2.17;1.20;;;;;;;1.25;78.98;97062.50;4930862;29;20118;-77
2021/01/27 07:54:33;;;;;;;2.95;1.30;;;;;;;1.31;78.49;97057.44;4915838;29;20083;-77
2021/01/27 07:57:02;;;;;;;2.80;1.10;;;;;;;1.54;78.43;97066.63;4931543;29;20098;-77
2021/01/27 07:59:47;;;;;;;2.17;1.10;;;;;;;1.31;78.45;97065.13;4933852;29;20042;-78
2021/01/27 08:02:15;;;;;;;;;;;;;;;1.03;79.57;97062.59;4928198;29;20139;-78
2021/01/27 08:04:45;;;;;;;2.72;1.08;;;;;;;1.37;79.20;97065.34;4899914;29;19918;-78
2021/01/27 08:07:30;;;;;;;2.50;0.98;;;;;;;1.39;78.44;97064.19;4915092;29;20040;-80
2021/01/27 08:10:06;;;;;;;2.83;1.08;;;;;;;1.24;78.82;97051.47;4936611;29;20391;-78
2021/01/27 08:12:45;;;;;;;1.73;1.27;;;;;;;1.32;78.40;97055.69;4934524;29;20110;-78
2021/01/27 08:15:24;;;;;;;1.90;0.93;;;;;;;1.13;79.36;97046.84;4915338;29;20038;-78
2021/01/27 08:17:54;;;;;;;2.20;0.98;;;;;;;1.03;80.24;97051.50;4937218;29;20630;-78
2021/01/27 08:20:24;;;;;;;1.13;0.70;;;;;;;1.19;79.77;97047.91;4931911;29;20066;-81
2021/01/27 08:23:01;;;;;;;1.30;0.70;;;;;;;1.20;79.68;97034.06;4913879;29;20130;-80
2021/01/27 08:25:50;;;;;;;2.20;0.70;;;;;;;1.10;80.04;97034.44;4914573;29;20043;-81
2021/01/27 08:28:26;;;;;;;1.10;0.55;;;;;;;1.10;80.04;97021.59;4921229;29;20035;-81
2021/01/27 08:31:07;;;;;;;2.35;0.73;;;;;;;1.17;79.72;97024.22;4915915;29;20058;-81
2021/01/27 08:33:47;;;;;;;0.98;0.40;;;;;;;1.08;79.88;97008.16;4929291;29;20090;-81
2021/01/27 08:36:27;;;;;;;1.10;0.47;;;;;;;1.25;79.45;97016.34;4930984;29;20036;-78
2021/01/27 08:38:56;;;;;;;0.93;0.50;;;;;;;1.23;79.88;97008.06;4923516;29;20038;-79
2021/01/27 08:41:58;;;;;;;1.55;0.30;;;;;;;1.14;79.57;96989.47;4929814;29;20517;-79
2021/01/27 08:44:32;;;;;;;0.77;0.43;;;;;;;1.31;79.94;97002.78;4915097;29;20043;-80
2021/01/27 08:47:16;;;;;;;1.17;0.30;;;;;;;1.35;79.63;96995.50;4914400;29;20079;-79
2021/01/27 08:49:45;;;;;;;0.77;0.40;;;;;;;1.44;79.39;96994.34;4908883;29;20040;-79
2021/01/27 08:52:10;;;;;;;1.25;0.40;;;;;;;1.39;79.58;96994.94;4930016;29;20047;-82
2021/01/27 08:54:39;;;;;;;0.60;0.30;;;;;;;1.26;79.95;96982.81;4929113;29;20039;-81
2021/01/27 08:57:20;;;;;;;0.60;0.30;;;;;;;1.14;79.83;96997.16;4932822;29;20975;-82
2021/01/27 08:59:52;;;;;;;0.98;0.40;;;;;;;1.31;79.39;97006.13;4928594;29;20119;-81
2021/01/27 09:02:40;;;;;;;1.38;0.30;;;;;;;1.37;79.56;97006.34;4911844;29;20067;-81
2021/01/27 09:05:26;;;;;;;0.98;0.45;;;;;;;1.35;78.93;97011.69;4929735;29;20083;-81
2021/01/27 09:07:58;;;;;;;1.77;0.60;;;;;;;1.56;78.74;97010.81;4925383;29;20071;-81
2021/01/27 09:10:38;;;;;;;1.10;0.65;;;;;;;1.39;79.43;97005.19;4933437;29;20020;-81
2021/01/27 09:13:38;;;;;;;0.70;0.30;;;;;;;1.43;79.10;97003.03;4923905;29;20039;-81
2021/01/27 09:16:18;;;;;;;0.70;0.40;;;;;;;1.46;79.01;97006.03;4937912;29;20042;-80
2021/01/27 09:18:56;;;;;;;0.73;0.32;;;;;;;1.51;78.83;97002.91;4934009;29;20090;-79
2021/01/27 09:21:22;;;;;;;1.35;0.47;;;;;;;1.52;79.06;96993.41;4919047;29;20356;-79
2021/01/27 09:23:58;;;;;;;0.50;0.30;;;;;;;1.49;79.08;96984.31;4933126;29;20031;-81
2021/01/27 09:26:45;;;;;;;1.05;0.40;;;;;;;1.39;79.67;96979.56;4913685;29;20040;-81
2021/01/27 09:29:19;;;;;;;0.73;0.30;;;;;;;1.38;79.34;96979.75;4932131;29;20027;-81
2021/01/27 09:31:44;;;;;;;0.43;0.20;;;;;;;1.57;79.11;96973.09;4935336;29;20065;-81
2021/01/27 09:34:23;;;;;;;1.27;0.30;;;;;;;1.41;79.04;96976.78;4933576;29;20043;-82
2021/01/27 09:36:52;;;;;;;0.65;0.30;;;;;;;1.43;79.49;96974.81;4918394;29;20031;-81
2021/01/27 09:39:35;;;;;;;0.63;0.40;;;;;;;1.43;79.62;96972.25;4917376;29;20032;-82
2021/01/27 09:42:16;;;;;;;0.85;0.38;;;;;;;1.26;79.86;96972.56;4924272;29;20034;-82
2021/01/27 09:44:46;;;;;;;1.73;0.30;;;;;;;1.46;79.31;96969.31;4922066;29;20162;-79
2021/01/27 09:47:13;;;;;;;2.17;0.40;;;;;;;1.64;78.74;96969.56;4919055;29;20381;-79
2021/01/27 09:49:58;;;;;;;0.60;0.40;;;;;;;1.55;79.00;96983.56;4920848;29;20039;-80
2021/01/27 09:52:24;;;;;;;;;;;;;;;1.26;80.04;96987.97;4935213;29;20063;-80
2021/01/27 09:54:58;;;;;;;0.98;0.30;;;;;;;1.60;78.59;96988.91;4909551;29;20349;-80
2021/01/27 09:57:24;;;;;;;0.60;0.30;;;;;;;1.67;79.34;96988.94;4918607;29;20031;-79
2021/01/27 09:59:52;;;;;;;1.25;0.55;;;;;;;1.77;78.40;96996.28;4935147;29;20027;-80
2021/01/27 10:02:31;;;;;;;0.82;0.30;;;;;;;1.69;78.10;96981.81;4916187;29;20533;-80
2021/01/27 10:04:57;;;;;;;0.30;0.10;;;;;;;1.80;78.41;96985.59;4913848;29;20040;-81
2021/01/27 10:07:34;;;;;;;0.55;0.35;;;;;;;1.79;77.92;96984.03;4931463;29;20527;-79
2021/01/27 10:10:15;;;;;;;0.90;0.50;;;;;;;1.83;77.82;96987.78;4915081;29;20615;-79
2021/01/27 10:12:41;;;;;;;0.63;0.30;;;;;;;2.10;77.51;96991.22;4916623;29;20568;-80
2021/01/27 10:15:25;;;;;;;1.30;0.50;;;;;;;1.93;77.78;96988.22;4930220;29;20028;-81
2021/01/27 10:18:08;;;;;;;1.05;0.75;;;;;;;1.80;77.81;96983.03;4906996;29;20099;-79
2021/01/27 10:20:36;;;;;;;0.70;0.40;;;;;;;2.08;77.31;96995.00;4912184;29;20024;-79
2021/01/27 10:23:05;;;;;;;2.28;0.38;;;;;;;1.88;77.63;96993.16;4912497;29;20025;-80
2021/01/27 10:25:35;;;;;;;1.20;0.60;;;;;;;1.83;77.78;96988.59;4919653;29;20032;-80
2021/01/27 10:28:22;;;;;;;1.02;0.82;;;;;;;1.66;78.78;96990.72;4919106;29;20040;-79
2021/01/27 10:30:52;;;;;;;1.48;0.73;;;;;;;1.82;78.20;96991.38;4906443;29;20043;-80
2021/01/27 10:33:47;;;;;;;1.70;0.68;;;;;;;1.75;78.62;96990.53;4897995;29;20038;-79
2021/01/27 10:36:25;;;;;;;1.48;0.88;;;;;;;1.79;78.34;96984.03;4918743;29;20031;-81
2021/01/27 10:39:18;;;;;;;1.55;0.88;;;;;;;1.72;78.67;96985.81;4916119;29;20043;-80
2021/01/27 10:41:47;;;;;;;1.80;0.70;;;;;;;1.75;78.71;96985.41;4906512;29;20140;-79
2021/01/27 10:44:30;;;;;;;1.70;0.93;;;;;;;1.59;79.00;96991.66;4916532;29;20475;-80
2021/01/27 10:47:00;;;;;;;1.50;0.90;;;;;;;1.83;77.91;97005.75;4934597;29;20036;-79
2021/01/27 10:49:27;;;;;;;1.38;0.70;;;;;;;2.07;77.80;97004.44;4921899;29;20207;-80
2021/01/27 10:51:53;;;;;;;2.03;0.80;;;;;;;2.09;77.57;97002.50;4910052;29;20024;-80
2021/01/27 10:54:22;;;;;;;1.50;0.85;;;;;;;1.98;78.14;97005.63;4905954;29;20050;-81
2021/01/27 10:56:55;;;;;;;3.53;1.20;;;;;;;1.97;77.58;97004.84;4910972;29;20051;-81
2021/01/27 10:59:21;;;;;;;1.42;1.00;;;;;;;1.97;78.26;97004.03;4922145;29;20040;-81
2021/01/27 11:01:47;;;;;;;1.23;0.77;;;;;;;1.78;78.75;97026.09;4911896;29;20107;-81
2021/01/27 11:04:17;;;;;;;1.50;0.93;;;;;;;1.95;77.77;97011.91;4912625;29;20483;-82
2021/01/27 11:06:43;;;;;;;2.72;1.55;;;;;;;1.97;77.83;97014.31;4912932;29;20134;-83
2021/01/27 11:09:10;;;;;;;2.17;1.10;;;;;;;1.76;78.31;97007.53;4923762;29;20023;-82
2021/01/27 11:11:36;;;;;;;2.63;1.20;;;;;;;1.98;77.76;96998.69;4928503;29;20479;-82
2021/01/27 11:14:06;;;;;;;2.55;1.40;;;;;;;1.71;78.27;97000.38;4925042;29;20031;-83
2021/01/27 11:16:32;;;;;;;1.75;1.25;;;;;;;1.89;78.58;96997.31;4899985;29;20167;-82
2021/01/27 11:19:01;;;;;;;2.25;1.27;;;;;;;1.83;78.34;96992.94;4924561;29;20514;-82
2021/01/27 11:21:26;;;;;;;3.03;1.60;;;;;;;1.94;78.04;96999.31;4897567;29;20122;-82
2021/01/27 11:23:54;;;;;;;1.70;1.30;;;;;;;2.01;77.52;96998.31;4910420;29;20817;-82
2021/01/27 11:26:22;;;;;;;4.32;1.20;;;;;;;2.03;77.19;97000.69;4930405;29;20506;-82
2021/01/27 11:28:51;;;;;;;2.25;1.33;;;;;;;1.97;77.69;96994.56;4924612;29;20027;-82
2021/01/27 11:31:17;;;;;;;2.92;1.33;;;;;;;2.10;77.82;96990.44;4912137;29;20102;-81
2021/01/27 11:33:46;;;;;;;2.55;1.73;;;;;;;1.95;77.26;96975.97;4913342;29;20058;-82
2021/01/27 11:36:14;;;;;;;4.13;1.55;;;;;;;2.21;77.65;96995.00;4897495;29;20032;-81
2021/01/27 11:38:39;;;;;;;2.67;1.70;;;;;;;2.03;78.17;96983.50;4912766;29;20039;-82
2021/01/27 11:41:05;;;;;;;3.75;1.50;;;;;;;2.13;77.63;96979.78;4874877;29;20059;-81
2021/01/27 11:43:30;;;;;;;3.40;2.00;;;;;;;2.12;77.42;96981.53;4928675;29;20046;-82
2021/01/27 11:45:56;;;;;;;2.85;1.80;;;;;;;2.01;78.51;96964.94;4897474;29;20111;-82
2021/01/27 11:48:22;;;;;;;3.35;1.50;;;;;;;2.12;77.63;96944.81;4891055;29;20480;-81
2021/01/27 11:50:47;;;;;;;2.30;1.38;;;;;;;2.00;78.39;96937.66;4902572;29;20112;-82
2021/01/27 11:53:14;;;;;;;5.15;1.80;;;;;;;1.77;78.60;96932.13;4928838;29;20031;-81
2021/01/27 11:55:40;;;;;;;3.75;2.25;;;;;;;1.79;79.19;96936.06;4928587;29;20053;-82
2021/01/27 11:58:06;;;;;;;5.25;2.40;;;;;;;1.77;78.76;96929.56;4897511;29;20128;-81
2021/01/27 12:00:32;;;;;;;2.50;1.80;;;;;;;1.86;78.60;96923.25;4912059;29;20546;-81
2021/01/27 12:02:57;;;;;;;3.45;2.00;;;;;;;1.87;78.82;96919.69;4906379;29;20514;-82
2021/01/27 12:05:24;;;;;;;4.30;2.00;;;;;;;1.99;78.41;96907.84;4925595;29;20399;-81
2021/01/27 12:07:49;;;;;;;3.88;1.80;;;;;;;2.03;78.17;96909.03;4894135;29;20052;-81
2021/01/27 12:10:17;;;;;;;3.58;1.98;;;;;;;2.01;77.83;96898.19;4893816;29;20040;-81